Time;durP1;ratioP1;P1;durP2;ratioP2;P2;SDS_P1;SDS_P2;PMS_P1;PMS_P2;Temp;Humidity;BMP_temperature;BMP_pressure;BME280_temperature;BME280_humidity;BME280_pressure;Samples;Min_cycle;Max_cycle;Signal;HPM_P1;HPM_P2
2023/01/22 00:01:14;;;;;;;14.32;7.30;;;-0.30;99.90;;;;;;5049564;28;20036;-80
2023/01/22 00:03:40;;;;;;;16.23;7.97;;;-0.30;99.90;;;;;;5022089;28;20033;-80
2023/01/22 00:06:07;;;;;;;16.65;8.65;;;-0.30;99.90;;;;;;5045346;28;20032;-80
2023/01/22 00:08:33;;;;;;;20.80;9.30;;;-0.30;99.90;;;;;;5050522;28;20049;-81
2023/01/22 00:10:59;;;;;;;20.05;10.15;;;-0.30;99.90;;;;;;5059819;28;20049;-80
2023/01/22 00:13:25;;;;;;;21.92;8.98;;;-0.30;99.90;;;;;;5033933;28;20111;-80
2023/01/22 00:15:52;;;;;;;22.08;10.10;;;-0.30;99.90;;;;;;5033027;28;20048;-80
2023/01/22 00:18:18;;;;;;;23.50;11.25;;;-0.30;99.90;;;;;;5051654;28;20044;-80
2023/01/22 00:20:51;;;;;;;26.60;12.40;;;-0.30;99.90;;;;;;5048114;28;20041;-80
2023/01/22 00:23:18;;;;;;;25.10;11.95;;;-0.30;99.90;;;;;;5034013;28;20132;-80
2023/01/22 00:25:44;;;;;;;25.88;12.07;;;-0.20;99.90;;;;;;5048082;28;20041;-80
2023/01/22 00:28:10;;;;;;;23.30;11.48;;;-0.20;99.90;;;;;;5046535;28;20048;-80
2023/01/22 00:30:37;;;;;;;28.08;12.75;;;-1.10;99.90;;;;;;5043551;28;20484;-80
2023/01/22 00:33:04;;;;;;;28.73;12.73;;;-0.20;99.90;;;;;;5047517;28;20083;-80
2023/01/22 00:35:29;;;;;;;25.05;11.88;;;-0.20;99.90;;;;;;5046859;28;20086;-80
2023/01/22 00:37:55;;;;;;;25.23;12.18;;;-0.20;99.90;;;;;;5030615;28;20510;-80
2023/01/22 00:40:21;;;;;;;25.35;12.38;;;-0.20;99.90;;;;;;5050641;28;20039;-80
2023/01/22 00:42:47;;;;;;;22.13;12.02;;;-0.20;99.90;;;;;;5048336;28;20507;-80
2023/01/22 00:45:14;;;;;;;22.95;11.23;;;-0.30;99.90;;;;;;5049092;28;20068;-80
2023/01/22 00:47:39;;;;;;;25.50;12.25;;;-0.30;99.90;;;;;;5018186;28;20164;-80
2023/01/22 00:50:06;;;;;;;23.33;11.48;;;-0.40;99.90;;;;;;5050131;28;20088;-80
2023/01/22 00:52:32;;;;;;;21.45;11.45;;;-0.40;99.90;;;;;;5044929;28;20052;-80
2023/01/22 00:54:57;;;;;;;24.15;11.35;;;-0.50;99.90;;;;;;5047591;28;20467;-80
2023/01/22 00:57:23;;;;;;;24.77;10.63;;;-0.50;99.90;;;;;;5043943;28;20526;-80
2023/01/22 00:59:49;;;;;;;23.83;11.55;;;-0.10;99.90;;;;;;5049044;28;20091;-80
2023/01/22 01:02:16;;;;;;;22.92;11.52;;;-0.60;99.90;;;;;;5047024;28;20040;-80
2023/01/22 01:04:44;;;;;;;23.48;11.75;;;-0.60;99.90;;;;;;5043549;28;20040;-80
2023/01/22 01:07:10;;;;;;;25.27;10.95;;;-0.70;99.90;;;;;;5047881;28;20361;-80
2023/01/22 01:09:36;;;;;;;25.73;12.63;;;-0.70;99.90;;;;;;5031981;28;20051;-80
2023/01/22 01:12:02;;;;;;;21.60;11.55;;;-0.70;99.90;;;;;;5040302;28;20044;-80
2023/01/22 01:14:27;;;;;;;21.75;11.40;;;-0.80;99.90;;;;;;5043291;28;20138;-80
2023/01/22 01:16:53;;;;;;;25.25;11.65;;;-0.80;99.90;;;;;;5023392;28;20080;-80
2023/01/22 01:19:22;;;;;;;23.98;11.77;;;-0.80;99.90;;;;;;5041818;28;20080;-80
2023/01/22 01:21:47;;;;;;;22.17;10.88;;;-0.90;99.90;;;;;;5059332;28;20256;-80
2023/01/22 01:24:13;;;;;;;23.27;11.02;;;-0.90;99.90;;;;;;5045180;28;20119;-80
2023/01/22 01:26:40;;;;;;;25.38;11.90;;;-0.90;99.90;;;;;;5031115;28;20087;-80
2023/01/22 01:29:08;;;;;;;23.45;11.27;;;-1.00;99.90;;;;;;5047115;28;20022;-80
2023/01/22 01:31:35;;;;;;;25.52;11.45;;;-1.00;99.90;;;;;;5041944;28;20049;-80
2023/01/22 01:34:01;;;;;;;23.88;12.10;;;-1.00;99.90;;;;;;5044533;28;20040;-80
2023/01/22 01:36:27;;;;;;;26.65;12.30;;;-1.00;99.90;;;;;;5046140;28;20048;-81
2023/01/22 01:38:53;;;;;;;23.70;11.55;;;-1.00;99.90;;;;;;5027235;28;20091;-80
2023/01/22 01:41:22;;;;;;;24.98;11.77;;;-1.00;99.90;;;;;;5042886;28;20032;-80
2023/01/22 01:44:08;;;;;;;27.35;11.88;;;-1.00;99.90;;;;;;5047072;28;20060;-80
2023/01/22 01:46:39;;;;;;;22.05;11.25;;;-1.00;99.90;;;;;;5049636;28;20111;-80
2023/01/22 01:49:05;;;;;;;25.90;12.73;;;-1.10;99.90;;;;;;5022307;28;20037;-80
2023/01/22 01:51:34;;;;;;;27.00;12.40;;;-0.90;99.90;;;;;;5048729;28;20041;-80
2023/01/22 01:54:02;;;;;;;27.00;11.93;;;-1.10;99.90;;;;;;5041539;28;20112;-80
2023/01/22 01:56:35;;;;;;;26.42;13.13;;;-1.10;99.90;;;;;;5050132;28;20045;-80
2023/01/22 01:59:08;;;;;;;30.48;12.48;;;-1.10;99.90;;;;;;5041535;28;20048;-80
2023/01/22 02:01:35;;;;;;;25.07;12.30;;;-1.00;99.90;;;;;;5044006;28;20470;-80
2023/01/22 02:04:01;;;;;;;28.00;13.55;;;-0.90;99.90;;;;;;5044348;28;20132;-80
2023/01/22 02:06:27;;;;;;;26.35;13.80;;;-0.80;99.90;;;;;;5060518;28;20558;-80
2023/01/22 02:08:53;;;;;;;24.98;13.00;;;-0.70;99.90;;;;;;5047116;28;20044;-80
2023/01/22 02:11:20;;;;;;;28.27;12.00;;;-0.70;99.90;;;;;;5034422;28;20041;-81
2023/01/22 02:13:58;;;;;;;26.70;12.98;;;-0.60;99.90;;;;;;5031955;28;20091;-80
2023/01/22 02:16:25;;;;;;;25.13;11.80;;;-0.50;99.90;;;;;;5059475;28;20037;-80
2023/01/22 02:18:51;;;;;;;27.88;12.73;;;-0.40;99.90;;;;;;5048318;28;20037;-80
2023/01/22 02:21:30;;;;;;;25.80;12.10;;;-0.40;99.90;;;;;;5061342;28;20403;-80
2023/01/22 02:23:56;;;;;;;24.33;11.32;;;-0.30;99.90;;;;;;5047334;28;20041;-80
2023/01/22 02:26:22;;;;;;;22.98;11.45;;;-0.30;99.90;;;;;;5042652;28;20039;-80
2023/01/22 02:28:48;;;;;;;23.33;11.35;;;-0.20;99.90;;;;;;5057338;28;20547;-80
2023/01/22 02:31:13;;;;;;;24.15;10.93;;;-0.20;99.90;;;;;;5039227;28;20048;-80
2023/01/22 02:33:39;;;;;;;23.50;11.05;;;-0.10;99.90;;;;;;5045973;28;20044;-80
2023/01/22 02:36:05;;;;;;;25.15;12.15;;;0.00;99.90;;;;;;5047048;28;20857;-80
2023/01/22 02:38:31;;;;;;;23.67;10.85;;;0.00;99.90;;;;;;5045944;28;20079;-80
2023/01/22 02:40:57;;;;;;;26.83;11.77;;;0.00;99.90;;;;;;5039515;28;20040;-80
2023/01/22 02:43:23;;;;;;;21.48;9.88;;;0.10;99.90;;;;;;5045589;28;20044;-81
2023/01/22 02:45:49;;;;;;;23.80;11.00;;;0.10;99.90;;;;;;5042630;28;20045;-80
2023/01/22 02:48:15;;;;;;;20.30;10.18;;;0.10;99.90;;;;;;5047764;28;20037;-80
2023/01/22 02:50:40;;;;;;;19.02;9.10;;;0.10;99.90;;;;;;5029020;28;20060;-80
2023/01/22 02:53:06;;;;;;;20.00;9.15;;;0.20;99.90;;;;;;5047957;28;20033;-80
2023/01/22 02:55:32;;;;;;;20.60;8.32;;;0.20;99.90;;;;;;5042599;28;20079;-80
2023/01/22 02:57:58;;;;;;;21.45;9.38;;;0.20;99.90;;;;;;5029311;28;20045;-80
2023/01/22 03:00:23;;;;;;;18.15;9.20;;;0.30;99.90;;;;;;5042170;28;20059;-80
2023/01/22 03:02:49;;;;;;;17.77;9.30;;;0.30;99.90;;;;;;5045551;28;20483;-80
2023/01/22 03:05:15;;;;;;;18.42;9.05;;;0.30;99.90;;;;;;5028695;28;20034;-80
2023/01/22 03:07:41;;;;;;;16.30;7.70;;;0.30;99.90;;;;;;5046611;28;20036;-80
2023/01/22 03:10:17;;;;;;;16.08;7.50;;;0.30;99.90;;;;;;5036606;28;20049;-80
2023/01/22 03:21:15;;;;;;;15.10;6.80;;;0.40;99.90;;;;;;5033069;28;20511;-80
2023/01/22 03:23:43;;;;;;;15.25;6.70;;;0.40;99.90;;;;;;5033096;28;20049;-80
2023/01/22 03:26:09;;;;;;;15.93;7.18;;;0.40;99.90;;;;;;5042177;28;20036;-80
2023/01/22 03:28:35;;;;;;;16.95;7.40;;;0.50;99.90;;;;;;5041625;28;20511;-80
2023/01/22 03:31:01;;;;;;;14.65;6.60;;;0.40;99.90;;;;;;5050539;28;20036;-80
2023/01/22 03:33:26;;;;;;;12.35;6.13;;;0.40;99.90;;;;;;5051276;28;20060;-80
2023/01/22 03:35:52;;;;;;;16.63;6.47;;;0.50;99.90;;;;;;5052785;28;20049;-80
2023/01/22 03:38:18;;;;;;;11.60;6.03;;;0.50;99.90;;;;;;5051243;28;20045;-80
2023/01/22 03:40:44;;;;;;;17.35;8.60;;;0.50;99.90;;;;;;5046790;28;20132;-80
2023/01/22 03:43:09;;;;;;;10.90;5.72;;;0.60;99.90;;;;;;5045636;28;20161;-80
2023/01/22 03:45:35;;;;;;;13.50;6.03;;;0.60;99.90;;;;;;5030924;28;20085;-80
2023/01/22 03:48:03;;;;;;;14.38;6.07;;;0.60;99.90;;;;;;5041846;28;20029;-80
2023/01/22 03:50:29;;;;;;;14.80;5.90;;;0.60;99.90;;;;;;5050449;28;20048;-80
2023/01/22 03:52:56;;;;;;;10.80;5.55;;;0.60;99.90;;;;;;5042740;28;20501;-80
2023/01/22 03:55:24;;;;;;;10.40;5.15;;;0.60;99.90;;;;;;5051080;28;20111;-80
2023/01/22 03:57:49;;;;;;;14.18;5.75;;;0.70;99.90;;;;;;5044164;28;20045;-80
2023/01/22 04:00:15;;;;;;;14.10;5.82;;;0.60;99.90;;;;;;5025553;28;20044;-80
2023/01/22 04:02:41;;;;;;;11.38;6.28;;;0.70;99.90;;;;;;5053385;28;20042;-80
2023/01/22 04:05:07;;;;;;;13.73;6.28;;;0.70;99.90;;;;;;5043755;28;20032;-80
2023/01/22 04:07:32;;;;;;;12.65;6.05;;;0.70;99.90;;;;;;5052087;28;20063;-79
2023/01/22 04:09:58;;;;;;;9.98;5.15;;;0.70;99.90;;;;;;5050338;28;20085;-80
2023/01/22 04:12:24;;;;;;;10.65;4.97;;;0.70;99.90;;;;;;5042934;28;20037;-80
2023/01/22 04:14:49;;;;;;;10.57;5.32;;;0.70;99.90;;;;;;5050176;28;20575;-79
2023/01/22 04:17:15;;;;;;;13.43;5.78;;;0.70;99.90;;;;;;5046139;28;20091;-80
2023/01/22 04:19:41;;;;;;;11.45;5.38;;;0.70;99.90;;;;;;5033035;28;20510;-80
2023/01/22 04:22:06;;;;;;;12.50;6.40;;;0.70;99.90;;;;;;5041059;28;20083;-79
2023/01/22 04:24:32;;;;;;;9.18;4.95;;;0.70;99.90;;;;;;5048284;28;20049;-80
2023/01/22 04:26:57;;;;;;;10.25;5.07;;;0.70;99.90;;;;;;5048932;28;20037;-80
2023/01/22 04:29:23;;;;;;;9.05;4.63;;;0.80;99.90;;;;;;5051027;28;20033;-80
2023/01/22 04:31:49;;;;;;;10.75;4.75;;;0.80;99.90;;;;;;5043022;28;20160;-80
2023/01/22 04:34:14;;;;;;;9.07;4.38;;;0.80;99.90;;;;;;5045251;28;20120;-80
2023/01/22 04:36:40;;;;;;;9.73;4.22;;;0.80;99.90;;;;;;5050820;28;20387;-80
2023/01/22 04:39:06;;;;;;;10.18;5.30;;;0.80;99.90;;;;;;5048473;28;20033;-80
2023/01/22 04:41:31;;;;;;;10.05;4.93;;;0.90;99.90;;;;;;5047987;28;20040;-80
2023/01/22 04:43:57;;;;;;;8.73;4.25;;;0.90;99.90;;;;;;5039006;28;20068;-79
2023/01/22 04:46:22;;;;;;;8.02;4.07;;;0.90;99.90;;;;;;5047638;28;20038;-79
2023/01/22 04:48:48;;;;;;;9.00;4.65;;;0.90;99.90;;;;;;5039488;28;20033;-80
2023/01/22 04:51:14;;;;;;;10.75;4.72;;;0.90;99.90;;;;;;5046811;28;20071;-80
2023/01/22 04:53:39;;;;;;;10.95;4.65;;;0.90;99.90;;;;;;5049766;28;20391;-80
2023/01/22 04:56:05;;;;;;;11.38;4.45;;;0.90;99.90;;;;;;5045127;28;20112;-79
2023/01/22 04:58:31;;;;;;;11.05;4.78;;;0.90;99.90;;;;;;5044128;28;20036;-80
2023/01/22 05:00:56;;;;;;;10.85;4.22;;;0.90;99.90;;;;;;5038025;28;20040;-80
2023/01/22 05:03:22;;;;;;;10.32;5.05;;;0.90;99.90;;;;;;5045828;28;20039;-80
2023/01/22 05:05:48;;;;;;;10.95;4.82;;;0.90;99.90;;;;;;5049621;28;20128;-80
2023/01/22 05:08:13;;;;;;;10.85;4.97;;;1.30;99.90;;;;;;5049687;28;20072;-80
2023/01/22 05:10:39;;;;;;;8.45;4.80;;;0.90;99.90;;;;;;5045231;28;20059;-80
2023/01/22 05:13:06;;;;;;;8.65;5.10;;;1.00;99.90;;;;;;5047253;28;20044;-80
2023/01/22 05:15:33;;;;;;;9.07;5.22;;;1.00;99.90;;;;;;5049436;28;20110;-79
2023/01/22 05:17:59;;;;;;;9.65;4.90;;;1.00;99.90;;;;;;5047301;28;20041;-79
2023/01/22 05:20:25;;;;;;;9.18;4.85;;;1.00;99.90;;;;;;5044286;28;20137;-80
2023/01/22 05:22:51;;;;;;;8.80;5.03;;;1.00;99.90;;;;;;5045121;28;20459;-80
2023/01/22 05:25:17;;;;;;;9.25;4.72;;;1.00;99.90;;;;;;5037625;28;20037;-80
2023/01/22 05:27:43;;;;;;;10.35;4.53;;;1.00;99.90;;;;;;5034541;28;20107;-80
2023/01/22 05:30:11;;;;;;;10.10;4.38;;;1.00;99.90;;;;;;5026448;28;20041;-80
2023/01/22 05:32:37;;;;;;;11.35;5.43;;;1.00;99.90;;;;;;5043085;28;20044;-80
2023/01/22 05:35:04;;;;;;;11.02;5.20;;;1.00;99.90;;;;;;5048360;28;20451;-80
2023/01/22 05:37:31;;;;;;;9.77;4.38;;;1.00;99.90;;;;;;5047069;28;20043;-79
2023/01/22 05:39:56;;;;;;;9.98;4.80;;;1.00;99.90;;;;;;5047688;28;20136;-80
2023/01/22 05:42:22;;;;;;;11.27;5.45;;;1.00;99.90;;;;;;5046639;28;20539;-80
2023/01/22 05:44:48;;;;;;;10.25;4.78;;;1.00;99.90;;;;;;5046669;28;20044;-80
2023/01/22 05:47:14;;;;;;;12.05;6.05;;;1.00;99.90;;;;;;5037879;28;20036;-80
2023/01/22 05:49:40;;;;;;;12.25;5.10;;;0.90;99.90;;;;;;5029816;28;20042;-80
2023/01/22 05:52:06;;;;;;;12.27;5.57;;;1.00;99.90;;;;;;5042773;28;20037;-80
2023/01/22 05:54:31;;;;;;;13.82;5.53;;;1.00;99.90;;;;;;5047519;28;20087;-80
2023/01/22 05:56:57;;;;;;;10.43;5.28;;;0.90;99.90;;;;;;5047525;28;20049;-80
2023/01/22 05:59:23;;;;;;;11.55;5.22;;;1.00;99.90;;;;;;5037117;28;20033;-80
2023/01/22 06:01:48;;;;;;;11.20;5.30;;;1.00;99.90;;;;;;5045210;28;20350;-80
2023/01/22 06:04:14;;;;;;;12.15;5.90;;;0.90;99.90;;;;;;5041673;28;20030;-80
2023/01/22 06:06:39;;;;;;;10.43;5.28;;;1.00;99.90;;;;;;5047299;28;20036;-80
2023/01/22 06:09:05;;;;;;;9.93;5.22;;;0.90;99.90;;;;;;5042671;28;20098;-80
2023/01/22 06:11:31;;;;;;;12.52;6.28;;;0.90;99.90;;;;;;5046568;28;20044;-80
2023/01/22 06:13:56;;;;;;;10.63;5.40;;;0.90;99.90;;;;;;5044361;28;20099;-79
2023/01/22 06:16:22;;;;;;;16.60;5.70;;;0.90;99.90;;;;;;5040791;28;20041;-80
2023/01/22 06:18:48;;;;;;;10.75;5.28;;;0.90;99.90;;;;;;5043596;28;20040;-81
2023/01/22 06:21:13;;;;;;;15.35;5.55;;;0.90;99.90;;;;;;5047435;28;20622;-81
2023/01/22 06:23:39;;;;;;;10.68;5.47;;;0.90;99.90;;;;;;5046749;28;20045;-80
2023/01/22 06:26:04;;;;;;;8.50;4.70;;;0.90;99.90;;;;;;5042226;28;20373;-80
2023/01/22 06:28:30;;;;;;;11.75;5.50;;;0.90;99.90;;;;;;5045581;28;20033;-80
2023/01/22 06:31:04;;;;;;;10.75;5.90;;;0.90;99.90;;;;;;5038245;28;20040;-80
2023/01/22 06:33:31;;;;;;;15.52;5.65;;;0.90;99.90;;;;;;5041538;28;20095;-80
2023/01/22 06:35:57;;;;;;;10.82;5.10;;;0.90;99.90;;;;;;5042730;28;20644;-81
2023/01/22 06:38:23;;;;;;;11.52;5.70;;;0.90;99.90;;;;;;5039224;28;20041;-80
2023/01/22 06:40:57;;;;;;;11.88;6.38;;;1.10;99.90;;;;;;5045031;28;20045;-81
2023/01/22 06:43:23;;;;;;;;;;;0.90;99.90;;;;;;5024521;28;20029;-80
2023/01/22 06:45:49;;;;;;;13.38;5.72;;;0.80;99.90;;;;;;5042568;28;20015;-80
2023/01/22 06:48:15;;;;;;;11.48;6.13;;;0.80;99.90;;;;;;5041690;28;20033;-79
2023/01/22 06:50:41;;;;;;;10.77;6.10;;;0.80;99.90;;;;;;5038255;28;20389;-80
2023/01/22 06:53:07;;;;;;;11.60;6.45;;;0.80;99.90;;;;;;5047617;28;20045;-80
2023/01/22 06:55:33;;;;;;;10.57;6.07;;;0.80;99.90;;;;;;5044099;28;20103;-79
2023/01/22 06:57:59;;;;;;;9.88;5.90;;;0.80;99.90;;;;;;5042937;28;20037;-80
2023/01/22 07:00:24;;;;;;;11.98;6.03;;;0.80;99.90;;;;;;5046530;28;20051;-81
2023/01/22 07:02:50;;;;;;;13.48;5.88;;;0.80;99.90;;;;;;5044972;28;20033;-80
2023/01/22 07:05:16;;;;;;;12.00;6.55;;;0.80;99.90;;;;;;5047305;28;20071;-81
2023/01/22 07:07:42;;;;;;;9.35;5.55;;;0.80;99.90;;;;;;5046583;28;20152;-81
2023/01/22 07:10:09;;;;;;;9.70;5.68;;;0.80;99.90;;;;;;5044707;28;20492;-80
2023/01/22 07:12:34;;;;;;;10.40;5.15;;;0.80;99.90;;;;;;5054004;28;20106;-80
2023/01/22 07:15:00;;;;;;;10.70;6.35;;;0.80;99.90;;;;;;5054557;28;20036;-80
2023/01/22 07:17:26;;;;;;;12.27;6.22;;;0.80;99.90;;;;;;5050382;28;20123;-80
2023/01/22 07:19:51;;;;;;;9.70;5.45;;;0.80;99.90;;;;;;5051285;28;20037;-80
2023/01/22 07:22:17;;;;;;;9.98;5.85;;;0.80;99.90;;;;;;5040028;28;20061;-81
2023/01/22 07:24:42;;;;;;;12.10;5.82;;;0.80;99.90;;;;;;5047926;28;20048;-80
2023/01/22 07:27:08;;;;;;;10.48;6.10;;;0.80;99.90;;;;;;5041859;28;20049;-80
2023/01/22 07:29:34;;;;;;;9.75;6.22;;;0.80;99.90;;;;;;5054864;28;20041;-81
2023/01/22 07:31:59;;;;;;;10.85;5.97;;;0.70;99.90;;;;;;5051346;28;20044;-81
2023/01/22 07:34:25;;;;;;;12.27;6.90;;;0.80;99.90;;;;;;5048143;28;20065;-80
2023/01/22 07:36:50;;;;;;;10.18;6.38;;;0.70;99.90;;;;;;5050516;28;20033;-80
2023/01/22 07:39:16;;;;;;;13.43;7.03;;;0.70;99.90;;;;;;5047758;28;20124;-81
2023/01/22 07:41:42;;;;;;;14.68;7.10;;;0.70;99.90;;;;;;5046930;28;20128;-81
2023/01/22 07:44:07;;;;;;;10.32;6.45;;;0.80;99.90;;;;;;5053070;28;20037;-80
2023/01/22 07:46:34;;;;;;;12.73;7.05;;;0.70;99.90;;;;;;5047247;28;20471;-80
2023/01/22 07:49:00;;;;;;;13.48;7.75;;;0.70;99.90;;;;;;5045261;28;20091;-81
2023/01/22 07:51:25;;;;;;;10.00;7.10;;;0.70;99.90;;;;;;5051416;28;20049;-80
2023/01/22 07:53:51;;;;;;;14.48;7.05;;;0.70;99.90;;;;;;5047787;28;20075;-81
2023/01/22 07:56:18;;;;;;;16.77;6.88;;;0.70;99.90;;;;;;5053451;28;20122;-80
2023/01/22 07:58:44;;;;;;;13.10;7.55;;;0.70;99.90;;;;;;5040052;28;20037;-81
2023/01/22 08:01:10;;;;;;;12.50;7.20;;;0.70;99.90;;;;;;5053824;28;20116;-80
2023/01/22 08:03:36;;;;;;;13.07;6.90;;;0.80;99.90;;;;;;5047498;28;20116;-80
2023/01/22 08:06:11;;;;;;;14.35;7.22;;;0.80;99.90;;;;;;5047611;28;20065;-80
2023/01/22 08:08:36;;;;;;;;;;;0.80;99.90;;;;;;5044466;28;20483;-80
2023/01/22 08:11:02;;;;;;;13.32;7.47;;;0.70;99.90;;;;;;5056717;28;19968;-81
2023/01/22 08:13:27;;;;;;;13.43;6.93;;;0.80;99.90;;;;;;5049168;28;20128;-80
2023/01/22 08:15:56;;;;;;;16.30;7.15;;;0.80;99.90;;;;;;5038924;28;20129;-79
2023/01/22 08:18:22;;;;;;;12.60;6.80;;;0.80;99.90;;;;;;5049614;28;20043;-78
2023/01/22 08:20:47;;;;;;;10.60;6.70;;;0.80;99.90;;;;;;5046473;28;20045;-79
2023/01/22 08:23:13;;;;;;;10.98;6.32;;;0.80;99.90;;;;;;5044805;28;20075;-79
2023/01/22 08:25:39;;;;;;;12.52;6.90;;;0.80;99.90;;;;;;5064099;28;20057;-80
2023/01/22 08:28:05;;;;;;;11.95;6.65;;;0.80;99.90;;;;;;5046394;28;20091;-79
2023/01/22 08:30:33;;;;;;;11.77;6.60;;;0.80;99.90;;;;;;5040045;28;20394;-79
2023/01/22 08:32:58;;;;;;;9.68;6.45;;;0.80;99.90;;;;;;5046858;28;20047;-79
2023/01/22 08:35:24;;;;;;;10.10;6.35;;;0.90;99.90;;;;;;5042744;28;20041;-78
2023/01/22 08:37:50;;;;;;;12.63;6.60;;;0.80;99.90;;;;;;5043173;28;20072;-79
2023/01/22 08:40:16;;;;;;;13.75;6.68;;;0.80;99.90;;;;;;5045355;28;20041;-79
2023/01/22 08:42:41;;;;;;;12.23;6.03;;;0.80;99.90;;;;;;5050321;28;20041;-80
2023/01/22 08:45:08;;;;;;;11.85;5.82;;;0.80;99.90;;;;;;5047817;28;20853;-80
2023/01/22 08:47:33;;;;;;;12.35;6.80;;;0.80;99.90;;;;;;5048737;28;20040;-80
2023/01/22 08:50:01;;;;;;;9.70;6.00;;;0.80;99.90;;;;;;5043480;28;20036;-79
2023/01/22 08:52:27;;;;;;;12.93;6.10;;;0.80;99.90;;;;;;5048119;28;20052;-80
2023/01/22 08:54:53;;;;;;;11.60;6.00;;;0.80;99.90;;;;;;5045406;28;20029;-80
2023/01/22 08:57:18;;;;;;;10.40;6.25;;;1.30;99.90;;;;;;5035627;28;20452;-80
2023/01/22 08:59:44;;;;;;;15.18;6.28;;;0.90;99.90;;;;;;5045811;28;20072;-79
2023/01/22 09:02:12;;;;;;;15.32;7.03;;;0.90;99.90;;;;;;5045638;28;20048;-79
2023/01/22 09:04:37;;;;;;;11.80;6.20;;;0.90;99.90;;;;;;5048293;28;20047;-79
2023/01/22 09:07:03;;;;;;;13.60;6.05;;;0.90;99.90;;;;;;5040379;28;20514;-79
2023/01/22 09:09:28;;;;;;;10.45;6.15;;;0.90;99.90;;;;;;5048740;28;20585;-79
2023/01/22 09:11:54;;;;;;;12.15;6.63;;;0.90;99.90;;;;;;5044932;28;20029;-79
2023/01/22 09:14:19;;;;;;;12.07;6.30;;;0.90;99.90;;;;;;5037797;28;20036;-79
2023/01/22 09:16:45;;;;;;;12.63;6.50;;;1.10;99.90;;;;;;5039625;28;20511;-80
2023/01/22 09:19:11;;;;;;;12.68;6.60;;;0.90;99.90;;;;;;5047694;28;20044;-79
2023/01/22 09:21:37;;;;;;;9.98;5.88;;;0.90;99.90;;;;;;5040433;28;20046;-79
2023/01/22 09:24:04;;;;;;;11.45;6.20;;;0.90;99.90;;;;;;5041042;28;20164;-79
2023/01/22 09:26:31;;;;;;;16.38;7.03;;;1.00;99.90;;;;;;5045074;28;20053;-79
2023/01/22 09:29:00;;;;;;;15.35;6.72;;;1.00;99.90;;;;;;5047742;28;20040;-80
2023/01/22 09:31:28;;;;;;;11.10;6.30;;;1.00;99.90;;;;;;5042653;28;20044;-79
2023/01/22 09:33:54;;;;;;;13.30;6.80;;;1.00;99.90;;;;;;5047789;28;20041;-79
2023/01/22 09:36:20;;;;;;;12.23;6.60;;;1.00;99.90;;;;;;5045609;28;20483;-79
2023/01/22 09:38:46;;;;;;;12.73;5.93;;;1.10;99.90;;;;;;5040367;28;20147;-79
2023/01/22 09:41:21;;;;;;;11.80;6.60;;;1.20;99.90;;;;;;5041930;28;20116;-81
2023/01/22 09:44:01;;;;;;;12.40;6.38;;;1.30;99.90;;;;;;5047100;28;20480;-82
2023/01/22 09:47:00;;;;;;;13.43;6.38;;;1.30;99.90;;;;;;5043009;28;20127;-82
2023/01/22 09:49:42;;;;;;;11.88;6.28;;;1.40;99.90;;;;;;5046185;28;20048;-81
2023/01/22 09:52:09;;;;;;;15.60;6.40;;;1.40;99.90;;;;;;5039430;28;20507;-82
2023/01/22 09:54:35;;;;;;;12.90;6.10;;;1.40;99.90;;;;;;5042231;28;20186;-82
2023/01/22 09:57:04;;;;;;;12.68;6.75;;;1.40;99.90;;;;;;5043150;28;20071;-81
2023/01/22 09:59:37;;;;;;;10.48;6.95;;;1.40;99.90;;;;;;5045257;28;20033;-81
2023/01/22 10:02:25;;;;;;;10.18;5.65;;;1.40;99.90;;;;;;5045020;28;20087;-81
2023/01/22 10:04:56;;;;;;;11.63;6.00;;;1.40;99.90;;;;;;5042670;28;20037;-78
2023/01/22 10:07:35;;;;;;;10.55;5.85;;;1.50;99.90;;;;;;5035687;28;20068;-80
2023/01/22 10:10:16;;;;;;;12.93;6.30;;;1.50;99.90;;;;;;5048140;28;20116;-80
2023/01/22 10:12:43;;;;;;;10.35;5.95;;;1.60;99.90;;;;;;5038325;28;20048;-80
2023/01/22 10:15:16;;;;;;;10.75;5.65;;;1.60;99.90;;;;;;5046628;28;20040;-79
2023/01/22 10:17:42;;;;;;;13.95;6.45;;;1.60;99.90;;;;;;5044528;28;20045;-79
2023/01/22 10:20:11;;;;;;;10.52;6.68;;;1.70;99.90;;;;;;5040007;28;20132;-78
2023/01/22 10:22:37;;;;;;;9.88;5.55;;;1.70;99.90;;;;;;5045319;28;20067;-78
2023/01/22 10:25:02;;;;;;;10.98;6.57;;;1.70;99.90;;;;;;5041184;28;20496;-78
2023/01/22 10:27:35;;;;;;;12.63;6.30;;;1.70;99.90;;;;;;5042114;28;20041;-78
2023/01/22 10:30:22;;;;;;;8.95;5.53;;;1.80;99.90;;;;;;5045242;28;20032;-78
2023/01/22 10:33:05;;;;;;;11.43;5.68;;;1.80;99.90;;;;;;5045211;28;20052;-80
2023/01/22 10:35:40;;;;;;;13.05;7.10;;;1.80;99.90;;;;;;5039517;28;20037;-79
2023/01/22 10:38:19;;;;;;;10.07;6.05;;;1.90;99.90;;;;;;5042908;28;20032;-79
2023/01/22 10:40:45;;;;;;;13.98;6.60;;;1.90;99.90;;;;;;5042253;28;20064;-79
2023/01/22 10:43:13;;;;;;;11.10;6.45;;;1.90;99.90;;;;;;5045783;28;20134;-80
2023/01/22 10:45:53;;;;;;;13.00;6.75;;;2.00;99.90;;;;;;5048059;28;20066;-80
2023/01/22 10:48:20;;;;;;;11.85;7.13;;;2.00;99.90;;;;;;5045296;28;20052;-80
2023/01/22 10:50:56;;;;;;;9.85;6.65;;;2.00;99.90;;;;;;5045173;28;20116;-80
2023/01/22 10:53:34;;;;;;;12.52;6.88;;;2.00;99.90;;;;;;5037848;28;20033;-79
2023/01/22 10:56:03;;;;;;;13.73;7.43;;;2.10;99.90;;;;;;5041876;28;20431;-80
2023/01/22 10:58:35;;;;;;;11.82;6.82;;;2.10;99.90;;;;;;5045239;28;20175;-79
2023/01/22 11:01:22;;;;;;;14.88;7.50;;;2.10;99.90;;;;;;5045661;28;20121;-79
2023/01/22 11:03:48;;;;;;;12.20;6.97;;;2.10;99.90;;;;;;5047511;28;20492;-80
2023/01/22 11:06:23;;;;;;;12.75;7.45;;;2.20;99.90;;;;;;5046238;28;20044;-79
2023/01/22 11:09:04;;;;;;;13.98;7.03;;;2.20;99.90;;;;;;5043082;28;20068;-80
2023/01/22 11:11:35;;;;;;;11.35;6.20;;;2.20;99.90;;;;;;5042752;28;20123;-79
2023/01/22 11:14:10;;;;;;;11.23;6.20;;;2.30;99.90;;;;;;5045269;28;20024;-78
2023/01/22 11:16:39;;;;;;;11.52;6.97;;;2.30;99.90;;;;;;5040993;28;21507;-77
2023/01/22 11:19:15;;;;;;;17.30;7.00;;;2.30;99.90;;;;;;5045728;28;20471;-78
2023/01/22 11:21:50;;;;;;;13.45;6.65;;;2.30;99.90;;;;;;5044901;28;20041;-79
2023/01/22 11:24:28;;;;;;;12.00;6.70;;;2.30;99.90;;;;;;5046709;28;20076;-79
2023/01/22 11:26:56;;;;;;;11.57;6.38;;;2.30;99.90;;;;;;5042277;28;20079;-80
2023/01/22 11:29:46;;;;;;;9.80;6.80;;;2.30;99.90;;;;;;5045453;28;20104;-79
2023/01/22 11:32:30;;;;;;;12.45;7.03;;;2.30;99.90;;;;;;5041261;28;20033;-80
2023/01/22 11:35:01;;;;;;;12.82;7.38;;;2.30;99.90;;;;;;5044490;28;20400;-79
2023/01/22 11:37:32;;;;;;;11.45;6.75;;;2.30;99.90;;;;;;5048667;28;20553;-80
2023/01/22 11:40:27;;;;;;;10.45;6.88;;;2.30;99.90;;;;;;5043803;28;20091;-80
2023/01/22 11:43:05;;;;;;;11.43;6.70;;;2.30;99.90;;;;;;5042869;28;20051;-79
2023/01/22 11:45:52;;;;;;;13.60;6.47;;;2.30;99.90;;;;;;5043478;28;20076;-80
2023/01/22 11:48:54;;;;;;;12.20;7.03;;;2.30;99.90;;;;;;5041719;28;20860;-80
2023/01/22 11:51:22;;;;;;;11.55;6.80;;;2.30;99.90;;;;;;5057376;28;20052;-80
2023/01/22 11:54:16;;;;;;;12.43;6.20;;;2.30;99.90;;;;;;5041511;28;20035;-79
2023/01/22 11:57:15;;;;;;;13.10;6.88;;;2.30;99.90;;;;;;5046937;28;20082;-80
2023/01/22 12:00:42;;;;;;;14.20;7.15;;;2.30;99.90;;;;;;5050049;28;20042;-80
2023/01/22 12:03:10;;;;;;;11.70;6.22;;;2.40;99.90;;;;;;5011583;28;20049;-80
2023/01/22 12:06:05;;;;;;;10.68;6.72;;;2.40;99.90;;;;;;5046454;28;20487;-80
2023/01/22 12:08:39;;;;;;;10.68;6.47;;;2.50;99.90;;;;;;5040664;28;20053;-79
2023/01/22 12:11:08;;;;;;;14.30;6.75;;;2.50;99.90;;;;;;5044348;28;20045;-80
2023/01/22 12:13:49;;;;;;;11.65;6.30;;;2.50;99.90;;;;;;5043006;28;20045;-80
2023/01/22 12:16:36;;;;;;;11.23;6.60;;;2.50;99.90;;;;;;5044745;28;20041;-80
2023/01/22 12:19:16;;;;;;;12.63;7.43;;;2.50;99.90;;;;;;5049202;28;20479;-80
2023/01/22 12:21:57;;;;;;;25.33;7.57;;;2.40;99.90;;;;;;5042292;28;20057;-79
2023/01/22 12:24:34;;;;;;;12.23;6.28;;;2.40;99.90;;;;;;5039388;28;20080;-80
2023/01/22 12:27:17;;;;;;;12.18;6.28;;;2.40;99.90;;;;;;5045678;28;20555;-79
2023/01/22 12:29:52;;;;;;;14.45;6.05;;;2.40;99.90;;;;;;5038003;28;20481;-79
2023/01/22 12:32:21;;;;;;;11.43;6.88;;;2.40;99.90;;;;;;5049218;28;20084;-79
2023/01/22 12:35:02;;;;;;;13.25;6.35;;;2.40;99.90;;;;;;5041630;28;20042;-80
2023/01/22 12:37:38;;;;;;;12.23;6.28;;;2.40;99.90;;;;;;5047364;28;20072;-79
2023/01/22 12:40:28;;;;;;;10.23;6.13;;;2.40;99.90;;;;;;5046035;28;20072;-80
2023/01/22 12:43:01;;;;;;;15.90;6.70;;;2.40;99.90;;;;;;5042745;28;20041;-80
2023/01/22 12:45:54;;;;;;;11.48;6.15;;;2.40;99.90;;;;;;5047324;28;20048;-80
2023/01/22 12:48:39;;;;;;;9.77;6.07;;;2.40;99.90;;;;;;5046193;28;20102;-79
2023/01/22 12:51:42;;;;;;;11.88;6.20;;;2.40;99.90;;;;;;5023775;28;20041;-79
2023/01/22 12:54:08;;;;;;;11.65;6.88;;;2.40;99.90;;;;;;5045482;28;20051;-80
2023/01/22 12:56:34;;;;;;;10.77;6.00;;;2.40;99.90;;;;;;5045771;28;20099;-80
2023/01/22 12:59:00;;;;;;;12.07;6.32;;;2.80;99.90;;;;;;5048576;28;20041;-80
2023/01/22 13:01:34;;;;;;;10.32;6.38;;;2.40;99.90;;;;;;5041898;28;20042;-80
2023/01/22 13:04:04;;;;;;;13.90;6.40;;;2.40;99.90;;;;;;5044242;28;20059;-80